Time;durP1;ratioP1;P1;durP2;ratioP2;P2;SDS_P1;SDS_P2;PMS_P1;PMS_P2;Temp;Humidity;BMP_temperature;BMP_pressure;BME280_temperature;BME280_humidity;BME280_pressure;Samples;Min_cycle;Max_cycle;Signal;HPM_P1;HPM_P2
2023/01/04 00:01:07;;;;;;;1.50;1.50;;;18.00;69.30;;;;;;5095154;28;43880;-69
2023/01/04 00:03:35;;;;;;;1.40;1.40;;;18.00;69.50;;;;;;5076559;28;43551;-73
2023/01/04 00:06:06;;;;;;;1.43;1.43;;;18.00;69.30;;;;;;5072364;28;45548;-70
2023/01/04 00:08:34;;;;;;;1.40;1.40;;;18.00;69.30;;;;;;5082466;28;44742;-68
2023/01/04 00:11:02;;;;;;;1.40;1.40;;;18.00;69.40;;;;;;5101793;28;43333;-69
2023/01/04 00:13:30;;;;;;;1.60;1.60;;;18.00;69.40;;;;;;5083590;28;43458;-71
2023/01/04 00:15:58;;;;;;;1.50;1.50;;;18.00;69.50;;;;;;5101624;28;43599;-68
2023/01/04 00:18:34;;;;;;;1.43;1.43;;;17.90;69.60;;;;;;5098048;28;43503;-69
2023/01/04 00:21:11;;;;;;;1.40;1.40;;;18.00;69.50;;;;;;5097915;28;43451;-71
2023/01/04 00:23:39;;;;;;;1.40;1.40;;;18.20;69.20;;;;;;5098165;28;43454;-70
2023/01/04 00:26:08;;;;;;;1.50;1.50;;;18.20;68.70;;;;;;5101414;28;43682;-70
2023/01/04 00:28:36;;;;;;;1.50;1.40;;;18.30;68.50;;;;;;5082413;28;45012;-69
2023/01/04 00:31:05;;;;;;;1.27;1.27;;;18.20;68.60;;;;;;5100262;28;43398;-69
2023/01/04 00:33:33;;;;;;;1.40;1.40;;;18.20;68.80;;;;;;5082335;28;44146;-69
2023/01/04 00:36:04;;;;;;;1.27;1.27;;;18.20;68.70;;;;;;5082428;28;45639;-73
2023/01/04 00:38:34;;;;;;;1.10;1.10;;;18.20;68.70;;;;;;5097955;28;43898;-69
2023/01/04 00:41:02;;;;;;;1.40;1.40;;;18.10;68.80;;;;;;5082553;28;43417;-71
2023/01/04 00:43:30;;;;;;;1.30;1.30;;;18.10;69.00;;;;;;5081803;28;43654;-73
2023/01/04 00:46:00;;;;;;;1.40;1.40;;;18.10;69.20;;;;;;5100804;28;43822;-68
2023/01/04 00:48:28;;;;;;;1.37;1.37;;;18.00;69.30;;;;;;5097494;27;43813;-69
2023/01/04 00:50:56;;;;;;;1.37;1.37;;;18.00;69.20;;;;;;5101032;28;43357;-68
2023/01/04 00:53:24;;;;;;;1.37;1.30;;;18.00;69.20;;;;;;5100701;28;43423;-69
2023/01/04 00:55:55;;;;;;;1.30;1.30;;;18.00;69.20;;;;;;5100774;28;43798;-69
2023/01/04 00:58:23;;;;;;;1.30;1.30;;;18.00;69.40;;;;;;5081910;28;45068;-71
2023/01/04 01:00:51;;;;;;;1.20;1.20;;;18.00;69.50;;;;;;5082023;28;43490;-68
2023/01/04 01:03:19;;;;;;;1.40;1.40;;;18.00;69.60;;;;;;5081040;28;43523;-70
2023/01/04 01:05:47;;;;;;;1.30;1.30;;;18.00;69.50;;;;;;5100314;28;43702;-69
2023/01/04 01:08:24;;;;;;;1.20;1.20;;;18.00;69.40;;;;;;5099913;28;43469;-69
2023/01/04 01:10:54;;;;;;;1.20;1.20;;;18.00;69.40;;;;;;5082446;28;43422;-68
2023/01/04 01:13:22;;;;;;;1.37;1.37;;;18.00;69.50;;;;;;5101331;28;43408;-70
2023/01/04 01:15:50;;;;;;;1.10;1.10;;;17.90;69.50;;;;;;5099732;28;43599;-69
2023/01/04 01:18:18;;;;;;;1.37;1.37;;;17.90;69.70;;;;;;5080740;28;44383;-70
2023/01/04 01:20:46;;;;;;;1.20;1.20;;;18.00;69.50;;;;;;5098983;28;43451;-69
2023/01/04 01:23:14;;;;;;;1.40;1.40;;;18.10;69.10;;;;;;5100240;28;43557;-70
2023/01/04 01:25:42;;;;;;;1.20;1.20;;;18.30;68.70;;;;;;5099570;28;43727;-70
2023/01/04 01:28:11;;;;;;;1.33;1.33;;;18.30;68.40;;;;;;5068462;28;44704;-67
2023/01/04 01:30:40;;;;;;;1.30;1.30;;;18.30;68.50;;;;;;5057799;28;43384;-69
2023/01/04 01:33:08;;;;;;;1.20;1.20;;;18.20;68.70;;;;;;5069317;28;43431;-69
2023/01/04 01:35:36;;;;;;;1.30;1.30;;;18.20;68.60;;;;;;5065023;28;43903;-69
2023/01/04 01:38:04;;;;;;;1.27;1.27;;;18.20;68.60;;;;;;5062869;28;43390;-69
2023/01/04 01:40:32;;;;;;;1.20;1.20;;;18.10;68.70;;;;;;5064828;28;43402;-69
2023/01/04 01:43:00;;;;;;;1.43;1.33;;;18.10;69.00;;;;;;5062656;28;43672;-70
2023/01/04 01:45:31;;;;;;;1.33;1.33;;;18.00;69.00;;;;;;5055895;28;43780;-69
2023/01/04 01:48:05;;;;;;;1.10;1.10;;;18.00;69.30;;;;;;5066560;28;43459;-69
2023/01/04 01:50:35;;;;;;;1.10;1.10;;;18.00;69.20;;;;;;5054587;28;43365;-68
2023/01/04 01:53:02;;;;;;;1.20;1.20;;;18.00;69.20;;;;;;5060832;28;43411;-70
2023/01/04 01:55:31;;;;;;;1.10;1.10;;;18.00;69.30;;;;;;5066397;28;43906;-71
2023/01/04 01:57:59;;;;;;;0.93;0.93;;;18.00;69.40;;;;;;5066387;28;43418;-69
2023/01/04 02:00:27;;;;;;;1.10;1.10;;;17.90;69.40;;;;;;5057458;28;43492;-75
2023/01/04 02:02:59;;;;;;;1.00;1.00;;;17.90;69.60;;;;;;5050004;28;43514;-77
2023/01/04 02:05:28;;;;;;;0.90;0.90;;;17.90;69.40;;;;;;5049052;28;46024;-77
2023/01/04 02:07:56;;;;;;;1.20;1.20;;;17.90;69.40;;;;;;5049339;28;45346;-77
2023/01/04 02:10:24;;;;;;;1.00;1.00;;;17.90;70.10;;;;;;5047696;28;43420;-77
2023/01/04 02:12:52;;;;;;;1.10;1.10;;;17.90;69.50;;;;;;5041932;28;43550;-77
2023/01/04 02:15:21;;;;;;;1.20;1.20;;;17.90;69.60;;;;;;5047372;28;43912;-76
2023/01/04 02:17:51;;;;;;;1.10;1.10;;;17.90;69.70;;;;;;5043497;28;45036;-75
2023/01/04 02:20:34;;;;;;;1.00;1.00;;;18.00;69.50;;;;;;5048319;28;43721;-74
2023/01/04 02:23:28;;;;;;;1.10;1.10;;;18.10;69.80;;;;;;5047851;28;43408;-75
2023/01/04 02:26:29;;;;;;;1.10;1.10;;;18.20;68.60;;;;;;5051629;28;43704;-75
2023/01/04 02:29:31;;;;;;;1.07;1.07;;;18.20;68.30;;;;;;5045226;28;43449;-77
2023/01/04 02:32:00;;;;;;;1.10;1.10;;;18.20;68.70;;;;;;5020162;28;43934;-74
2023/01/04 02:34:30;;;;;;;1.00;1.00;;;18.20;68.70;;;;;;5047089;28;43881;-76
2023/01/04 02:36:59;;;;;;;1.10;1.10;;;18.20;68.70;;;;;;5044903;28;45680;-77
2023/01/04 02:39:34;;;;;;;1.17;1.17;;;18.10;68.70;;;;;;5045308;28;44145;-77
2023/01/04 02:42:06;;;;;;;1.20;1.20;;;18.10;69.00;;;;;;5045011;28;44123;-76
2023/01/04 02:44:52;;;;;;;1.03;1.03;;;18.00;69.00;;;;;;5046202;28;43961;-76
2023/01/04 02:50:29;;;;;;;1.30;1.30;;;18.00;69.20;;;;;;5044782;28;43616;-77
2023/01/04 02:50:31;;;;;;;1.17;1.17;;;18.00;69.20;;;;;;5043815;28;43477;-75
2023/01/04 02:53:00;;;;;;;1.30;1.30;;;18.00;69.20;;;;;;5044501;28;44077;-74
2023/01/04 02:55:32;;;;;;;1.00;1.00;;;18.00;69.30;;;;;;5042651;28;43599;-77
2023/01/04 02:58:02;;;;;;;1.10;1.10;;;17.90;69.30;;;;;;5046053;28;43912;-77
2023/01/04 03:06:14;;;;;;;1.20;1.20;;;17.90;69.40;;;;;;5045724;28;44057;-77
2023/01/04 03:06:21;;;;;;;1.00;1.00;;;18.00;69.10;;;;;;5041319;28;43401;-75
2023/01/04 03:08:54;;;;;;;1.30;1.30;;;18.10;68.80;;;;;;5043453;28;43894;-77
2023/01/04 03:14:05;;;;;;;1.10;1.10;;;18.10;69.00;;;;;;5018612;28;44044;-76
2023/01/04 03:16:53;;;;;;;0.90;0.90;;;18.00;69.10;;;;;;5041820;28;43490;-78
2023/01/04 03:19:50;;;;;;;1.03;1.03;;;18.00;69.10;;;;;;5046333;28;43748;-76
2023/01/04 03:36:04;;;;;;;1.10;1.10;;;17.90;69.30;;;;;;5067311;28;43500;-76
2023/01/04 03:49:45;;;;;;;1.13;1.13;;;17.90;69.50;;;;;;5086092;28;43371;-75
2023/01/04 03:52:14;;;;;;;1.10;1.10;;;18.10;69.10;;;;;;5060709;28;46226;-77
2023/01/04 03:54:43;;;;;;;1.00;1.00;;;18.20;68.70;;;;;;5085902;28;43407;-75
2023/01/04 03:57:12;;;;;;;0.90;0.90;;;18.20;68.60;;;;;;5085577;28;44001;-76
2023/01/04 03:59:41;;;;;;;0.93;0.93;;;18.10;68.70;;;;;;5085739;28;43499;-77
2023/01/04 04:02:12;;;;;;;1.03;1.03;;;18.10;68.80;;;;;;5085372;28;44024;-77
2023/01/04 04:10:13;;;;;;;1.07;1.07;;;18.00;68.90;;;;;;5085767;28;43485;-77
2023/01/04 04:12:41;;;;;;;1.10;1.10;;;18.00;69.10;;;;;;5085343;28;43560;-77
2023/01/04 04:15:09;;;;;;;1.10;1.10;;;17.90;69.30;;;;;;5085348;28;43440;-75
2023/01/04 04:17:37;;;;;;;1.17;1.17;;;17.90;69.20;;;;;;5076097;28;43457;-76
2023/01/04 04:20:06;;;;;;;0.90;0.90;;;17.90;69.20;;;;;;5079924;28;43403;-78
2023/01/04 04:22:35;;;;;;;1.07;1.07;;;17.90;69.30;;;;;;5080944;27;43853;-76
2023/01/04 04:25:04;;;;;;;1.00;1.00;;;17.90;69.40;;;;;;5088603;28;44074;-75
2023/01/04 04:27:32;;;;;;;1.10;1.10;;;17.90;69.50;;;;;;5063867;28;43434;-71
2023/01/04 04:30:01;;;;;;;0.90;0.90;;;17.80;69.60;;;;;;5064384;28;44448;-77
2023/01/04 04:32:29;;;;;;;1.20;1.20;;;17.90;69.50;;;;;;5084502;28;43737;-76
2023/01/04 04:34:57;;;;;;;1.00;1.00;;;18.00;69.20;;;;;;5070211;28;44241;-76
2023/01/04 04:37:25;;;;;;;1.03;1.03;;;18.00;69.10;;;;;;5088766;28;43412;-76
2023/01/04 04:39:55;;;;;;;1.10;1.10;;;18.00;69.10;;;;;;5069489;28;44088;-75
2023/01/04 04:42:22;;;;;;;1.10;1.10;;;18.00;69.20;;;;;;5088231;28;43992;-75
2023/01/04 04:44:50;;;;;;;1.20;1.20;;;17.90;69.30;;;;;;5069950;28;44310;-78
2023/01/04 04:47:17;;;;;;;1.00;1.00;;;17.90;69.20;;;;;;5084541;28;43455;-75
2023/01/04 04:49:45;;;;;;;1.00;1.00;;;17.90;69.20;;;;;;5088994;28;43398;-77
2023/01/04 04:52:13;;;;;;;1.10;1.10;;;17.90;69.20;;;;;;5088184;28;44051;-74
2023/01/04 04:54:41;;;;;;;1.10;1.10;;;17.90;69.30;;;;;;5088271;28;43522;-77
2023/01/04 04:57:10;;;;;;;1.20;1.20;;;17.90;69.30;;;;;;5082475;28;43505;-75
2023/01/04 04:59:38;;;;;;;1.00;1.00;;;17.90;69.60;;;;;;5088639;28;43482;-77
2023/01/04 05:02:06;;;;;;;1.07;1.07;;;17.90;69.50;;;;;;5066793;28;46162;-77
2023/01/04 05:04:35;;;;;;;1.13;1.13;;;18.00;69.10;;;;;;5087957;28;43447;-77
2023/01/04 05:07:03;;;;;;;1.17;1.17;;;18.10;68.80;;;;;;5087910;28;43407;-75
2023/01/04 05:09:38;;;;;;;1.20;1.20;;;18.10;68.60;;;;;;5069717;28;43582;-74
2023/01/04 05:14:53;;;;;;;1.00;1.00;;;18.10;68.90;;;;;;5085852;28;43494;-75
2023/01/04 05:17:21;;;;;;;1.03;1.03;;;18.10;68.90;;;;;;5083558;28;43403;-75
2023/01/04 05:19:49;;;;;;;1.00;1.00;;;18.00;68.60;;;;;;5088312;28;43530;-77
2023/01/04 05:22:17;;;;;;;1.07;1.07;;;18.00;68.80;;;;;;5087684;28;43843;-76
2023/01/04 05:24:45;;;;;;;1.10;1.10;;;18.00;68.90;;;;;;5087842;28;43522;-75
2023/01/04 05:27:13;;;;;;;1.10;1.10;;;17.90;69.00;;;;;;5087358;28;43442;-75
2023/01/04 05:32:27;;;;;;;1.10;1.10;;;18.00;69.10;;;;;;5087664;28;43916;-78
2023/01/04 05:34:55;;;;;;;1.10;1.10;;;18.00;69.10;;;;;;5087614;27;43545;-78
2023/01/04 05:37:24;;;;;;;1.10;1.10;;;17.90;69.10;;;;;;5087419;28;43481;-76
2023/01/04 05:39:52;;;;;;;1.20;1.20;;;17.90;69.80;;;;;;5069152;28;44171;-77
2023/01/04 05:42:26;;;;;;;1.20;1.20;;;17.90;69.30;;;;;;5085034;28;43829;-75
2023/01/04 05:44:55;;;;;;;1.00;1.00;;;17.90;69.50;;;;;;5086723;28;43513;-78
2023/01/04 05:47:23;;;;;;;1.00;1.00;;;17.90;69.30;;;;;;5087776;28;43958;-77
2023/01/04 05:49:52;;;;;;;1.10;1.10;;;18.10;69.00;;;;;;5087903;28;43403;-76
2023/01/04 05:52:20;;;;;;;1.10;1.10;;;18.10;68.70;;;;;;5087119;28;43932;-77
2023/01/04 05:54:48;;;;;;;1.10;1.10;;;18.10;68.60;;;;;;5069038;28;44657;-75
2023/01/04 05:57:16;;;;;;;1.10;1.10;;;18.10;68.70;;;;;;5087153;28;43485;-76
2023/01/04 05:59:44;;;;;;;1.30;1.30;;;18.00;68.90;;;;;;5087663;28;43433;-75
2023/01/04 06:02:16;;;;;;;0.90;0.90;;;18.00;68.80;;;;;;5068069;28;45954;-76
2023/01/04 06:04:44;;;;;;;1.10;1.10;;;18.00;68.80;;;;;;5086299;28;43554;-75
2023/01/04 06:07:14;;;;;;;0.90;0.90;;;18.00;68.90;;;;;;5087000;28;43449;-75
2023/01/04 06:09:42;;;;;;;1.00;1.00;;;17.90;69.00;;;;;;5087537;28;43474;-76
2023/01/04 06:12:10;;;;;;;1.00;1.00;;;17.90;69.10;;;;;;5059263;28;44074;-77
2023/01/04 06:14:38;;;;;;;1.00;1.00;;;17.90;69.30;;;;;;5086962;28;43963;-75
2023/01/04 06:17:06;;;;;;;1.00;1.00;;;17.90;69.20;;;;;;5066677;28;43495;-76
2023/01/04 06:19:34;;;;;;;1.00;1.00;;;17.90;69.20;;;;;;5068777;28;43480;-76
2023/01/04 06:22:02;;;;;;;1.00;1.00;;;17.90;69.30;;;;;;5082503;28;43620;-76
2023/01/04 06:24:32;;;;;;;1.10;1.10;;;17.90;69.40;;;;;;5086714;28;43483;-75
2023/01/04 06:27:00;;;;;;;1.10;1.10;;;17.80;69.50;;;;;;5056739;28;43502;-77
2023/01/04 06:29:28;;;;;;;1.20;1.20;;;17.80;69.50;;;;;;5049399;28;44197;-75
2023/01/04 06:31:57;;;;;;;1.00;1.00;;;17.80;69.30;;;;;;5055115;28;44135;-75
2023/01/04 06:34:25;;;;;;;1.00;1.00;;;17.90;69.40;;;;;;5049632;28;44522;-76
2023/01/04 06:36:58;;;;;;;1.00;1.00;;;17.80;69.40;;;;;;5048811;28;44012;-78
2023/01/04 06:39:26;;;;;;;0.87;0.87;;;17.80;69.40;;;;;;5043171;28;43561;-75
2023/01/04 06:41:55;;;;;;;1.17;1.10;;;17.80;69.60;;;;;;5048733;28;43740;-76
2023/01/04 06:44:32;;;;;;;0.80;0.80;;;17.90;69.60;;;;;;5052178;28;43535;-76
2023/01/04 06:47:00;;;;;;;0.97;0.97;;;18.00;69.30;;;;;;5050434;28;43429;-77
2023/01/04 06:49:28;;;;;;;1.00;1.00;;;18.10;68.80;;;;;;5051643;28;43385;-77
2023/01/04 06:51:56;;;;;;;0.93;0.93;;;18.10;68.50;;;;;;5046648;28;44007;-77
2023/01/04 06:54:24;;;;;;;0.83;0.83;;;18.10;68.50;;;;;;5045129;28;43902;-76
2023/01/04 06:56:52;;;;;;;1.07;1.07;;;18.10;68.70;;;;;;5053855;28;43361;-77
2023/01/04 06:59:22;;;;;;;1.00;1.00;;;18.10;68.80;;;;;;5053210;28;43806;-77
2023/01/04 07:01:50;;;;;;;0.90;0.90;;;18.10;68.70;;;;;;5047153;28;43764;-77
2023/01/04 07:04:18;;;;;;;0.80;0.80;;;18.00;68.70;;;;;;5052190;28;43894;-76
2023/01/04 07:06:46;;;;;;;0.90;0.90;;;18.00;68.90;;;;;;5052311;28;43374;-77
2023/01/04 07:09:14;;;;;;;0.90;0.90;;;18.00;69.00;;;;;;5049015;28;43554;-75
2023/01/04 07:11:42;;;;;;;0.80;0.80;;;17.90;69.20;;;;;;5047420;28;46218;-77
2023/01/04 07:14:10;;;;;;;1.00;1.00;;;17.90;69.10;;;;;;5047885;28;43444;-77
2023/01/04 07:16:39;;;;;;;1.03;1.03;;;17.90;69.00;;;;;;5048625;28;43462;-76
2023/01/04 07:19:08;;;;;;;1.00;1.00;;;17.90;69.10;;;;;;5048006;28;43448;-75
2023/01/04 07:21:36;;;;;;;0.90;0.90;;;17.90;69.30;;;;;;5046871;28;43953;-77
2023/01/04 07:24:04;;;;;;;0.80;0.80;;;17.90;69.30;;;;;;5048082;28;43400;-75
2023/01/04 07:26:32;;;;;;;1.00;1.00;;;17.80;69.40;;;;;;5048320;28;43949;-75
2023/01/04 07:29:15;;;;;;;0.90;0.90;;;17.90;69.40;;;;;;5086177;28;43511;-77
2023/01/04 07:31:48;;;;;;;1.10;1.10;;;18.00;69.10;;;;;;5085711;28;43690;-76
2023/01/04 07:34:16;;;;;;;1.07;1.07;;;18.10;68.70;;;;;;5067267;28;45029;-75
2023/01/04 07:36:44;;;;;;;0.90;0.90;;;18.10;68.60;;;;;;5065550;28;43411;-77
2023/01/04 07:39:12;;;;;;;1.00;1.00;;;18.00;68.70;;;;;;5086183;28;44065;-76
2023/01/04 07:41:40;;;;;;;0.90;0.90;;;18.00;68.90;;;;;;5084940;28;44048;-76
2023/01/04 07:44:10;;;;;;;0.97;0.97;;;18.00;68.90;;;;;;5085741;28;43440;-76
2023/01/04 07:46:38;;;;;;;1.07;1.07;;;18.00;68.90;;;;;;5085752;28;43435;-75
2023/01/04 07:49:10;;;;;;;0.90;0.90;;;17.90;69.00;;;;;;5085869;28;43494;-77
2023/01/04 07:51:44;;;;;;;0.80;0.80;;;17.90;69.80;;;;;;5085791;28;43954;-77
2023/01/04 07:54:12;;;;;;;0.90;0.90;;;17.90;69.20;;;;;;5085673;28;43512;-74
2023/01/04 07:56:40;;;;;;;1.00;1.00;;;17.90;69.40;;;;;;5085369;28;44025;-76
2023/01/04 07:59:08;;;;;;;0.90;0.90;;;17.90;69.30;;;;;;5089579;28;43403;-75
2023/01/04 08:01:37;;;;;;;0.70;0.70;;;17.80;69.30;;;;;;5089376;28;44024;-77
2023/01/04 08:04:07;;;;;;;1.00;1.00;;;17.80;69.30;;;;;;5088942;28;44059;-76
2023/01/04 08:06:35;;;;;;;0.90;0.90;;;17.80;69.40;;;;;;5089182;28;43297;-76
2023/01/04 08:09:04;;;;;;;0.90;0.90;;;17.80;69.50;;;;;;5088411;27;43433;-77
2023/01/04 08:11:32;;;;;;;0.90;0.90;;;17.80;69.60;;;;;;5089200;28;44805;-75
2023/01/04 08:14:00;;;;;;;0.80;0.80;;;17.80;69.50;;;;;;5089641;28;43827;-75
2023/01/04 08:16:30;;;;;;;0.80;0.80;;;17.80;69.40;;;;;;5087949;28;43469;-77
2023/01/04 08:18:59;;;;;;;0.90;0.90;;;17.80;69.50;;;;;;5068756;28;44527;-77
2023/01/04 08:21:28;;;;;;;0.90;0.90;;;17.80;69.60;;;;;;5070746;28;45650;-76
2023/01/04 08:23:56;;;;;;;0.87;0.87;;;17.80;69.60;;;;;;5070549;28;44268;-76
2023/01/04 08:26:24;;;;;;;1.00;1.00;;;17.80;69.80;;;;;;5071041;28;43438;-77
2023/01/04 08:28:52;;;;;;;0.90;0.90;;;17.80;69.50;;;;;;5089123;28;43438;-77
2023/01/04 08:31:21;;;;;;;0.83;0.83;;;18.00;69.20;;;;;;5086317;28;43924;-77
2023/01/04 08:33:49;;;;;;;0.90;0.90;;;18.10;68.70;;;;;;5086813;28;43818;-76
2023/01/04 08:36:18;;;;;;;1.00;1.00;;;18.10;68.30;;;;;;5070604;28;43503;-77
2023/01/04 08:38:55;;;;;;;1.00;1.00;;;18.10;68.40;;;;;;5089310;28;43965;-78
2023/01/04 08:41:28;;;;;;;1.00;1.00;;;18.10;68.70;;;;;;5088985;28;43726;-76
2023/01/04 08:44:17;;;;;;;0.80;0.80;;;18.10;68.60;;;;;;5086825;27;43449;-77
2023/01/04 08:46:45;;;;;;;0.97;0.97;;;18.00;68.60;;;;;;5087103;27;43381;-76
2023/01/04 08:49:13;;;;;;;0.90;0.90;;;18.00;68.80;;;;;;5089138;28;43502;-76
2023/01/04 08:51:41;;;;;;;0.90;0.90;;;17.90;68.90;;;;;;5088508;28;43814;-76
2023/01/04 08:54:11;;;;;;;0.87;0.87;;;17.90;69.10;;;;;;5070329;28;44636;-77
2023/01/04 08:56:39;;;;;;;0.90;0.90;;;17.90;69.20;;;;;;5084942;28;43387;-76
2023/01/04 08:59:07;;;;;;;1.03;1.03;;;17.90;69.10;;;;;;5089015;28;43499;-74
2023/01/04 09:01:35;;;;;;;0.90;0.90;;;17.90;69.30;;;;;;5085722;28;43908;-75
2023/01/04 09:04:03;;;;;;;0.80;0.80;;;17.90;69.30;;;;;;5066720;28;44632;-75
2023/01/04 09:06:31;;;;;;;0.90;0.90;;;17.80;69.30;;;;;;5088477;28;43446;-76
2023/01/04 09:08:59;;;;;;;0.90;0.90;;;17.80;69.50;;;;;;5069705;28;43487;-75
2023/01/04 09:11:28;;;;;;;1.07;1.07;;;17.80;69.60;;;;;;5069950;28;44826;-76
2023/01/04 09:13:57;;;;;;;0.87;0.87;;;17.90;69.30;;;;;;5066810;28;44773;-76
2023/01/04 09:16:34;;;;;;;0.90;0.90;;;18.00;69.00;;;;;;5067428;28;43487;-76
2023/01/04 09:19:02;;;;;;;1.00;1.00;;;18.00;68.80;;;;;;5086614;28;44077;-74
2023/01/04 09:21:30;;;;;;;0.80;0.80;;;17.90;68.80;;;;;;5088159;27;44385;-77
2023/01/04 09:23:58;;;;;;;0.90;0.90;;;17.90;69.00;;;;;;5069388;28;45872;-74
2023/01/04 09:26:28;;;;;;;0.90;0.90;;;17.90;69.10;;;;;;5084030;28;43431;-76
2023/01/04 09:28:56;;;;;;;1.00;1.00;;;17.80;69.20;;;;;;5084112;28;43429;-77
2023/01/04 09:31:25;;;;;;;0.83;0.83;;;17.80;69.20;;;;;;5087825;28;43682;-76
2023/01/04 09:33:53;;;;;;;0.80;0.80;;;17.80;69.20;;;;;;5087935;28;44063;-77
2023/01/04 09:36:41;;;;;;;0.80;0.80;;;17.80;69.30;;;;;;5082232;28;43555;-77
2023/01/04 09:39:10;;;;;;;0.90;0.90;;;17.70;69.30;;;;;;5087769;28;43454;-77
2023/01/04 09:41:54;;;;;;;1.10;1.10;;;17.70;69.30;;;;;;5082384;28;43600;-74
2023/01/04 09:44:28;;;;;;;1.00;1.00;;;17.70;69.40;;;;;;5067844;28;44541;-76
2023/01/04 09:47:18;;;;;;;1.00;1.00;;;17.70;70.40;;;;;;5067389;28;43419;-75
2023/01/04 09:49:47;;;;;;;0.97;0.97;;;17.80;69.50;;;;;;5088272;28;43466;-74
2023/01/04 09:52:17;;;;;;;1.10;1.10;;;18.00;69.10;;;;;;5081063;28;43900;-75
2023/01/04 09:54:46;;;;;;;1.13;1.10;;;18.10;68.70;;;;;;5069298;28;45574;-74
2023/01/04 09:57:22;;;;;;;1.30;1.30;;;18.30;68.20;;;;;;5068906;28;43522;-75
2023/01/04 09:59:51;;;;;;;1.63;1.50;;;18.40;67.70;;;;;;5088423;28;43442;-78
2023/01/04 10:02:22;;;;;;;2.07;1.87;;;18.60;67.20;;;;;;5087630;28;43976;-77
2023/01/04 10:04:51;;;;;;;2.27;1.67;;;18.70;66.70;;;;;;5087385;28;43431;-78
2023/01/04 10:07:23;;;;;;;1.47;1.47;;;18.90;66.30;;;;;;5087457;28;43428;-76
2023/01/04 10:09:51;;;;;;;1.83;1.50;;;19.00;65.90;;;;;;5069226;28;43550;-77
2023/01/04 10:12:32;;;;;;;1.97;1.80;;;19.10;65.60;;;;;;5087489;28;43951;-77
2023/01/04 10:15:11;;;;;;;1.77;1.63;;;19.10;65.20;;;;;;5087601;28;43501;-77
2023/01/04 10:17:51;;;;;;;3.27;1.97;;;19.20;65.30;;;;;;5083323;27;44115;-74
2023/01/04 10:20:56;;;;;;;1.87;1.77;;;19.10;65.60;;;;;;5084046;27;43352;-76
2023/01/04 10:24:05;;;;;;;2.27;1.83;;;18.80;65.90;;;;;;5085275;28;43686;-76
2023/01/04 10:26:34;;;;;;;2.30;1.90;;;18.60;66.90;;;;;;5085717;28;43925;-77
2023/01/04 10:29:17;;;;;;;3.27;2.00;;;18.60;67.10;;;;;;5067377;28;43507;-75
2023/01/04 10:31:46;;;;;;;1.90;1.80;;;18.50;67.20;;;;;;5081665;28;43429;-76
2023/01/04 10:34:20;;;;;;;2.70;2.00;;;18.30;67.30;;;;;;5086049;28;43872;-76
2023/01/04 10:36:48;;;;;;;2.70;2.10;;;18.30;67.50;;;;;;5086983;28;43529;-76
2023/01/04 10:39:17;;;;;;;2.00;1.80;;;18.20;67.70;;;;;;5085910;28;43920;-76
2023/01/04 10:41:49;;;;;;;2.10;1.90;;;18.10;68.30;;;;;;5068755;28;43619;-76
2023/01/04 10:44:21;;;;;;;2.17;2.00;;;18.10;68.30;;;;;;5067206;28;45616;-76
2023/01/04 10:46:51;;;;;;;1.77;1.67;;;18.10;68.30;;;;;;5066331;28;44601;-77
2023/01/04 10:49:22;;;;;;;2.10;1.90;;;18.00;68.30;;;;;;5068138;28;43937;-77
2023/01/04 10:51:53;;;;;;;2.00;1.90;;;18.00;68.40;;;;;;5068785;28;43514;-75
2023/01/04 10:54:24;;;;;;;2.03;1.83;;;17.90;68.80;;;;;;5068131;28;45990;-78
2023/01/04 10:56:56;;;;;;;2.23;2.00;;;18.00;69.00;;;;;;5086568;28;43477;-76
2023/01/04 10:59:28;;;;;;;2.20;2.10;;;18.10;68.80;;;;;;5086411;27;43477;-75
2023/01/04 11:01:57;;;;;;;1.80;1.70;;;18.20;68.40;;;;;;5068354;28;43434;-76
2023/01/04 11:04:27;;;;;;;1.83;1.73;;;18.20;68.10;;;;;;5066346;28;45766;-76
2023/01/04 11:06:59;;;;;;;2.10;1.90;;;18.20;68.00;;;;;;5086426;28;43372;-76
2023/01/04 11:09:29;;;;;;;1.80;1.67;;;18.10;68.40;;;;;;5067819;28;43944;-77
2023/01/04 11:11:57;;;;;;;1.90;1.80;;;18.10;69.10;;;;;;5087007;27;43687;-74
2023/01/04 11:14:27;;;;;;;2.03;1.90;;;18.10;68.20;;;;;;5086101;28;43747;-76
2023/01/04 11:17:04;;;;;;;2.13;1.83;;;18.10;68.30;;;;;;5057823;28;44709;-76
2023/01/04 11:19:32;;;;;;;2.10;2.00;;;18.00;68.30;;;;;;5068008;28;43466;-73
2023/01/04 11:22:02;;;;;;;1.80;1.70;;;18.00;68.50;;;;;;5083771;28;43541;-76
2023/01/04 11:24:31;;;;;;;1.90;1.80;;;17.90;69.00;;;;;;5085961;28;43636;-76
2023/01/04 11:27:04;;;;;;;1.90;1.80;;;17.90;68.80;;;;;;5067867;28;44470;-77
2023/01/04 11:29:35;;;;;;;1.80;1.70;;;17.90;68.60;;;;;;5067935;28;43466;-71
2023/01/04 11:32:05;;;;;;;2.00;1.90;;;17.90;68.70;;;;;;5090166;27;44055;-76
2023/01/04 11:34:44;;;;;;;2.33;2.13;;;17.90;68.80;;;;;;5092293;28;43846;-76
2023/01/04 11:37:27;;;;;;;1.90;1.80;;;17.80;69.20;;;;;;5093194;28;43896;-75
2023/01/04 11:40:11;;;;;;;1.90;1.80;;;17.90;69.30;;;;;;5092771;28;43444;-75
2023/01/04 11:42:40;;;;;;;2.10;1.90;;;18.00;69.00;;;;;;5093025;28;43502;-77
2023/01/04 11:45:16;;;;;;;2.07;1.97;;;18.10;68.70;;;;;;5092860;28;43869;-76
2023/01/04 11:47:48;;;;;;;1.50;1.50;;;18.10;68.40;;;;;;5096282;27;43502;-76
2023/01/04 11:50:38;;;;;;;1.40;1.40;;;18.00;68.20;;;;;;5088383;28;43465;-75
2023/01/04 11:53:23;;;;;;;1.67;1.63;;;18.00;68.80;;;;;;5086944;28;43795;-76
2023/01/04 11:55:51;;;;;;;1.70;1.60;;;18.00;68.50;;;;;;5092952;28;43920;-77
2023/01/04 11:58:19;;;;;;;2.10;2.00;;;18.00;68.50;;;;;;5090904;28;44925;-77
2023/01/04 12:00:52;;;;;;;1.60;1.60;;;17.90;68.40;;;;;;5093006;28;43936;-75
2023/01/04 12:03:25;;;;;;;1.70;1.70;;;17.90;68.70;;;;;;5070572;28;43555;-77
2023/01/04 12:05:53;;;;;;;1.67;1.60;;;17.90;69.10;;;;;;5092501;28;43903;-75
2023/01/04 12:08:27;;;;;;;1.70;1.70;;;17.80;69.10;;;;;;5092371;28;43460;-77
2023/01/04 12:10:55;;;;;;;1.90;1.80;;;17.80;68.90;;;;;;5090610;27;43464;-77
2023/01/04 12:13:23;;;;;;;1.70;1.60;;;17.80;68.90;;;;;;5093013;28;43489;-77
2023/01/04 12:15:58;;;;;;;1.90;1.80;;;17.80;69.00;;;;;;5074261;28;46139;-74
2023/01/04 12:18:27;;;;;;;2.00;1.90;;;17.80;69.00;;;;;;5090712;28;43398;-74
2023/01/04 12:20:55;;;;;;;1.83;1.73;;;17.80;69.50;;;;;;5092662;28;43516;-76
2023/01/04 12:23:23;;;;;;;1.53;1.53;;;17.80;69.20;;;;;;5092607;28;44027;-76
2023/01/04 12:25:52;;;;;;;2.10;2.00;;;17.80;69.20;;;;;;5092281;28;43734;-77
2023/01/04 12:28:30;;;;;;;1.70;1.60;;;17.80;69.20;;;;;;5092031;28;43573;-74
2023/01/04 12:31:28;;;;;;;1.70;1.60;;;17.80;69.30;;;;;;5090221;28;43483;-77
2023/01/04 12:33:57;;;;;;;1.50;1.50;;;17.70;69.50;;;;;;5092518;28;43455;-76
2023/01/04 12:36:56;;;;;;;1.80;1.80;;;17.80;69.60;;;;;;5091152;28;43929;-76
2023/01/04 12:39:41;;;;;;;1.57;1.57;;;17.90;69.20;;;;;;5085849;27;43488;-73
2023/01/04 12:42:23;;;;;;;1.80;1.70;;;18.10;68.90;;;;;;5092345;28;43495;-76
2023/01/04 12:45:22;;;;;;;2.00;1.90;;;18.10;68.40;;;;;;5085229;28;43867;-76
2023/01/04 12:51:13;;;;;;;1.73;1.63;;;18.00;68.70;;;;;;5087543;28;43439;-78
2023/01/04 12:53:59;;;;;;;1.43;1.43;;;18.00;68.60;;;;;;5083298;28;43344;-78
2023/01/04 12:57:05;;;;;;;1.50;1.50;;;18.00;68.60;;;;;;5089074;28;44112;-76
2023/01/04 12:59:34;;;;;;;1.47;1.47;;;18.00;68.80;;;;;;5087365;28;43928;-72
2023/01/04 13:02:17;;;;;;;1.80;1.70;;;17.90;68.90;;;;;;5070229;28;44430;-73
2023/01/04 13:04:46;;;;;;;1.30;1.30;;;17.90;69.30;;;;;;5083892;28;43467;-75
2023/01/04 13:07:20;;;;;;;1.60;1.60;;;17.90;69.20;;;;;;5088605;28;43424;-77
2023/01/04 13:09:57;;;;;;;1.63;1.63;;;17.80;69.00;;;;;;5069822;28;45196;-77
2023/01/04 13:12:51;;;;;;;1.40;1.40;;;17.80;69.20;;;;;;5088354;28;43949;-75
2023/01/04 13:15:22;;;;;;;2.00;1.90;;;17.80;69.30;;;;;;5082285;28;43297;-76
2023/01/04 13:17:50;;;;;;;1.50;1.50;;;17.80;69.40;;;;;;5088532;28;43346;-77
2023/01/04 13:20:21;;;;;;;1.40;1.40;;;17.80;69.50;;;;;;5087711;28;44513;-76
2023/01/04 13:22:51;;;;;;;1.43;1.43;;;17.80;69.30;;;;;;5069744;28;44673;-76
2023/01/04 13:25:19;;;;;;;1.20;1.20;;;17.80;69.30;;;;;;5088081;28;43507;-77
2023/01/04 13:27:57;;;;;;;1.63;1.63;;;17.80;69.30;;;;;;5075294;28;43550;-76
2023/01/04 13:30:30;;;;;;;1.40;1.40;;;17.80;69.40;;;;;;5069486;28;45685;-75
2023/01/04 13:32:58;;;;;;;1.20;1.20;;;17.70;69.50;;;;;;5069770;28;44629;-75
2023/01/04 13:35:59;;;;;;;1.37;1.37;;;17.70;69.60;;;;;;5083893;28;43546;-77
2023/01/04 13:38:27;;;;;;;1.60;1.60;;;17.90;69.40;;;;;;5083696;28;43427;-76
2023/01/04 13:40:55;;;;;;;1.40;1.30;;;18.00;69.00;;;;;;5068991;28;45837;-76
2023/01/04 13:43:46;;;;;;;1.80;1.70;;;18.10;68.70;;;;;;5082548;28;43534;-76
2023/01/04 13:46:15;;;;;;;1.27;1.27;;;18.00;68.50;;;;;;5087773;28;43482;-76
2023/01/04 13:48:46;;;;;;;1.40;1.40;;;18.00;68.80;;;;;;5088354;28;43388;-76
2023/01/04 13:51:17;;;;;;;1.33;1.33;;;18.00;68.80;;;;;;5087768;28;43950;-77
2023/01/04 13:53:55;;;;;;;1.33;1.33;;;18.00;68.70;;;;;;5088013;28;43495;-76
2023/01/04 13:56:24;;;;;;;1.33;1.33;;;17.90;68.70;;;;;;5086469;28;43425;-75